createdAt,value
2019-06-26T00:04:02.532Z,26.24
2019-06-26T00:09:07.372Z,26.27
2019-06-26T00:14:10.923Z,26.25
2019-06-26T00:19:14.319Z,26.24
2019-06-26T00:24:17.904Z,26.24
2019-06-26T00:29:21.436Z,26.15
2019-06-26T00:34:24.774Z,25.89
2019-06-26T00:39:28.310Z,25.94
2019-06-26T00:44:31.602Z,25.73
2019-06-26T00:49:34.788Z,25.71
2019-06-26T00:54:38.455Z,25.77
2019-06-26T00:59:42.198Z,25.85
2019-06-26T01:04:47.929Z,25.76
2019-06-26T01:09:51.452Z,25.72
2019-06-26T01:14:54.676Z,25.39
2019-06-26T01:19:57.862Z,25.29
2019-06-26T01:25:01.130Z,25.36
2019-06-26T01:30:05.824Z,25.28
2019-06-26T01:35:09.226Z,25.46
2019-06-26T01:40:12.873Z,25.46
2019-06-26T01:50:16.525Z,25.53
2019-06-26T01:55:19.820Z,25.39
2019-06-26T02:00:23.543Z,25.28
2019-06-26T02:05:26.441Z,25.53
2019-06-26T02:10:29.894Z,25.55
2019-06-26T02:15:33.601Z,25.44
2019-06-26T02:20:34.204Z,25.53
2019-06-26T02:25:37.547Z,25.77
2019-06-26T02:30:40.441Z,25.53
2019-06-26T02:35:44.067Z,25.50
2019-06-26T02:40:47.571Z,25.48
2019-06-26T02:45:50.188Z,25.59
2019-06-26T02:50:53.689Z,25.67
2019-06-26T02:55:56.655Z,25.51
2019-06-26T03:00:59.233Z,25.55
2019-06-26T03:06:02.556Z,25.39
2019-06-26T03:11:06.109Z,25.51
2019-06-26T03:16:09.356Z,25.26
2019-06-26T03:21:12.850Z,24.82
2019-06-26T03:26:15.399Z,25.11
2019-06-26T03:31:18.647Z,25.29
2019-06-26T03:36:21.966Z,25.15
2019-06-26T03:41:25.223Z,25.08
2019-06-26T03:46:28.445Z,25.08
2019-06-26T03:51:31.409Z,25.36
2019-06-26T03:56:34.739Z,25.18
2019-06-26T04:01:38.231Z,25.32
2019-06-26T04:06:41.852Z,25.42
2019-06-26T04:11:45.159Z,25.49
2019-06-26T04:16:48.694Z,25.48
2019-06-26T04:21:52.177Z,25.22
2019-06-26T04:26:55.697Z,25.45
2019-06-26T04:31:58.906Z,25.34
2019-06-26T04:37:01.940Z,25.49
2019-06-26T04:42:04.951Z,25.41
2019-06-26T04:47:07.900Z,25.36
2019-06-26T04:52:10.851Z,25.16
2019-06-26T04:57:14.414Z,25.22
2019-06-26T05:02:17.680Z,25.48
2019-06-26T05:07:21.275Z,25.62
2019-06-26T05:12:24.892Z,25.44
2019-06-26T05:17:28.439Z,25.44
2019-06-26T05:22:31.903Z,25.64
2019-06-26T05:27:34.677Z,25.54
2019-06-26T05:32:38.200Z,25.55
2019-06-26T05:37:42.482Z,25.55
2019-06-26T05:42:45.763Z,25.81
2019-06-26T05:47:49.002Z,25.98
2019-06-26T05:52:52.465Z,25.89
2019-06-26T05:57:54.960Z,26.22
2019-06-26T06:02:58.224Z,26.31
2019-06-26T06:08:01.437Z,26.33
2019-06-26T06:13:06.899Z,26.39
2019-06-26T06:18:11.902Z,26.37
2019-06-26T06:23:15.155Z,26.50
2019-06-26T06:28:17.998Z,26.42
2019-06-26T06:33:21.435Z,26.44
2019-06-26T06:38:24.980Z,26.75
2019-06-26T06:43:28.170Z,26.75
2019-06-26T06:48:31.415Z,26.57
2019-06-26T06:53:33.908Z,26.91
2019-06-26T06:58:36.401Z,26.93
2019-06-26T07:03:39.906Z,27.03
2019-06-26T07:08:43.132Z,27.28
2019-06-26T07:13:45.678Z,27.36
2019-06-26T07:18:49.108Z,27.23
2019-06-26T07:23:52.657Z,27.44
2019-06-26T07:28:53.540Z,27.42
2019-06-26T07:33:57.090Z,27.47
2019-06-26T07:39:02.019Z,27.50
2019-06-26T07:44:05.238Z,27.59
2019-06-26T07:49:08.062Z,27.71
2019-06-26T07:54:10.518Z,27.91
2019-06-26T07:59:13.698Z,27.96
2019-06-26T08:04:16.820Z,28.00
2019-06-26T08:09:19.302Z,28.27
2019-06-26T08:14:22.319Z,28.19
2019-06-26T08:19:25.183Z,28.14
2019-06-26T08:24:28.805Z,28.34
2019-06-26T08:29:32.151Z,28.42
2019-06-26T08:34:35.484Z,28.24
2019-06-26T08:39:39.049Z,28.24
2019-06-26T08:44:42.419Z,28.45
2019-06-26T08:49:45.093Z,28.58
2019-06-26T08:54:48.728Z,28.23
2019-06-26T08:59:52.248Z,28.46
2019-06-26T09:04:55.909Z,28.37
2019-06-26T09:09:59.125Z,28.25
2019-06-26T09:15:03.759Z,28.35
2019-06-26T09:20:07.647Z,28.24
2019-06-26T09:25:21.447Z,28.34
2019-06-26T09:30:15.639Z,28.39
2019-06-26T09:35:18.861Z,28.27
2019-06-26T09:40:22.102Z,28.32
2019-06-26T09:45:25.701Z,28.22
2019-06-26T09:50:29.551Z,28.25
2019-06-26T09:55:32.879Z,28.18
2019-06-26T10:00:35.911Z,28.12
2019-06-26T10:05:39.264Z,28.30
2019-06-26T10:10:42.805Z,28.41
2019-06-26T10:15:46.134Z,28.40
2019-06-26T10:20:49.691Z,28.31
2019-06-26T10:25:53.029Z,28.45
2019-06-26T10:30:56.283Z,28.79
2019-06-26T10:35:59.890Z,28.59
2019-06-26T10:41:03.171Z,28.58
2019-06-26T10:46:06.120Z,28.55
2019-06-26T10:51:09.345Z,28.63
2019-06-26T10:56:12.542Z,28.63
2019-06-26T11:01:15.768Z,28.54
2019-06-26T11:06:18.989Z,28.58
2019-06-26T11:11:21.945Z,28.51
2019-06-26T11:16:25.264Z,28.76
2019-06-26T11:21:28.238Z,28.88
2019-06-26T11:26:31.179Z,28.90
2019-06-26T11:31:34.438Z,29.09
2019-06-26T11:36:37.730Z,29.17
2019-06-26T11:41:41.102Z,29.50
2019-06-26T11:46:44.212Z,29.96
2019-06-26T11:51:46.799Z,29.87
2019-06-26T11:56:49.698Z,29.61
2019-06-26T12:01:52.610Z,30.08
2019-06-26T12:06:55.897Z,30.00
2019-06-26T12:11:59.461Z,30.42
2019-06-26T12:17:02.983Z,30.63
2019-06-26T12:22:06.284Z,30.57
2019-06-26T12:27:09.519Z,30.64
2019-06-26T12:32:12.908Z,30.05
2019-06-26T12:37:16.460Z,30.34
2019-06-26T12:42:19.316Z,30.17
2019-06-26T12:47:22.633Z,30.67
2019-06-26T12:52:26.148Z,30.60
2019-06-26T12:57:29.397Z,30.99
2019-06-26T13:02:33.091Z,31.07
2019-06-26T13:07:36.970Z,30.55
2019-06-26T13:12:40.557Z,30.30
2019-06-26T13:17:44.186Z,30.35
2019-06-26T13:22:47.134Z,30.64
2019-06-26T13:27:50.069Z,30.33
2019-06-26T13:32:53.295Z,30.61
2019-06-26T13:37:55.926Z,30.90
2019-06-26T13:42:58.423Z,30.53
2019-06-26T13:48:01.730Z,30.25
2019-06-26T13:53:04.963Z,29.92
2019-06-26T13:58:08.306Z,30.08
2019-06-26T14:03:11.204Z,29.34
2019-06-26T14:08:14.423Z,29.48
2019-06-26T14:13:17.961Z,29.70
2019-06-26T14:18:21.563Z,29.99
2019-06-26T14:23:24.759Z,30.16
2019-06-26T14:28:27.957Z,29.50
2019-06-26T14:33:31.554Z,29.43
2019-06-26T14:38:34.481Z,29.68
2019-06-26T14:43:37.702Z,29.51
2019-06-26T14:48:41.213Z,29.97
2019-06-26T14:53:44.837Z,30.46
2019-06-26T14:58:48.037Z,30.35
2019-06-26T15:03:51.363Z,30.23
2019-06-26T15:08:54.309Z,29.51
2019-06-26T15:13:57.277Z,29.78
2019-06-26T15:19:00.926Z,30.18
2019-06-26T15:24:03.969Z,29.48
2019-06-26T15:29:06.678Z,28.45
2019-06-26T15:34:09.674Z,28.94
2019-06-26T15:39:12.595Z,29.01
2019-06-26T15:44:15.805Z,28.89
2019-06-26T15:49:18.419Z,28.75
2019-06-26T15:54:21.960Z,29.09
2019-06-26T15:59:25.187Z,28.72
2019-06-26T16:04:28.768Z,28.01
2019-06-26T16:09:32.074Z,28.15
2019-06-26T16:14:35.391Z,27.30
2019-06-26T16:19:38.643Z,27.54
2019-06-26T16:24:42.010Z,27.03
2019-06-26T16:29:48.496Z,26.69
2019-06-26T16:34:49.875Z,26.70
2019-06-26T16:39:52.738Z,27.06
2019-06-26T16:44:58.888Z,26.54
2019-06-26T16:50:02.484Z,26.10
2019-06-26T16:55:06.128Z,26.34
2019-06-26T17:00:10.487Z,26.76
2019-06-26T17:05:14.049Z,26.14
2019-06-26T17:10:17.977Z,26.25
2019-06-26T17:15:21.733Z,25.93
2019-06-26T17:20:25.350Z,25.74
2019-06-26T17:25:28.572Z,25.38
2019-06-26T17:30:32.140Z,25.29
2019-06-26T17:35:34.769Z,25.18
2019-06-26T17:40:37.749Z,25.18
2019-06-26T17:45:41.276Z,24.92
2019-06-26T17:50:44.914Z,24.20
2019-06-26T17:55:48.665Z,24.20
2019-06-26T18:00:51.966Z,24.17
2019-06-26T18:05:54.572Z,24.02
2019-06-26T18:10:58.228Z,23.97
2019-06-26T18:16:01.261Z,23.36
2019-06-26T18:21:04.603Z,22.87
2019-06-26T18:26:13.536Z,22.76
2019-06-26T18:31:13.131Z,22.87
2019-06-26T18:36:16.783Z,23.07
2019-06-26T18:41:20.402Z,22.61
2019-06-26T18:46:24.974Z,22.34
2019-06-26T18:51:28.662Z,22.37
2019-06-26T18:56:31.321Z,22.18
2019-06-26T19:01:34.743Z,22.17
2019-06-26T19:06:39.900Z,22.22
2019-06-26T19:11:45.758Z,21.91
2019-06-26T19:16:49.376Z,21.43
2019-06-26T19:21:52.386Z,21.75
2019-06-26T19:26:55.993Z,21.55
2019-06-26T19:31:59.393Z,21.79
2019-06-26T19:37:03.079Z,21.75
2019-06-26T19:42:06.752Z,21.93
2019-06-26T19:47:10.292Z,21.82
2019-06-26T19:52:13.962Z,21.55
2019-06-26T19:57:17.650Z,21.66
2019-06-26T20:02:20.927Z,21.75
2019-06-26T20:07:23.932Z,21.66
2019-06-26T20:12:27.513Z,21.31
2019-06-26T20:17:31.119Z,21.40
2019-06-26T20:22:34.173Z,21.34
2019-06-26T20:27:37.507Z,21.64
2019-06-26T20:32:40.813Z,20.90
2019-06-26T20:37:44.038Z,20.22
2019-06-26T20:42:47.262Z,20.13
2019-06-26T20:47:50.950Z,20.55
2019-06-26T20:52:53.976Z,20.46
2019-06-26T20:57:57.594Z,20.22
2019-06-26T21:03:01.947Z,20.16
2019-06-26T21:08:05.245Z,19.94
2019-06-26T21:13:08.751Z,20.13
2019-06-26T21:18:13.818Z,20.10
2019-06-26T21:23:18.942Z,19.55
2019-06-26T21:28:22.463Z,19.30
2019-06-26T21:33:24.964Z,19.58
2019-06-26T21:38:28.517Z,19.42
2019-06-26T21:43:31.398Z,19.00
2019-06-26T21:48:34.732Z,18.66
2019-06-26T21:53:38.308Z,19.07
2019-06-26T21:58:41.225Z,18.98
2019-06-26T22:03:44.397Z,18.57
2019-06-26T22:08:47.336Z,18.62
2019-06-26T22:13:50.883Z,18.59
2019-06-26T22:18:54.269Z,18.28
2019-06-26T22:23:57.681Z,18.12
2019-06-26T22:29:01.292Z,18.27
2019-06-26T22:34:04.559Z,18.16
2019-06-26T22:39:07.193Z,18.08
2019-06-26T22:44:10.368Z,17.97
2019-06-26T22:49:13.854Z,18.32
2019-06-26T22:54:19.753Z,18.31
2019-06-26T22:59:22.612Z,18.53
2019-06-26T23:04:26.403Z,18.51
2019-06-26T23:09:30.196Z,18.43
2019-06-26T23:14:33.777Z,18.55
2019-06-26T23:19:37.032Z,18.77
2019-06-26T23:24:40.295Z,18.70
2019-06-26T23:29:43.514Z,18.47
2019-06-26T23:34:46.060Z,17.90
2019-06-26T23:39:49.832Z,18.23
2019-06-26T23:44:52.791Z,18.24
2019-06-26T23:49:55.731Z,18.34
2019-06-26T23:54:59.274Z,18.36
